メインページ
METAR-TAF:

METAR-TAF

空港 :

バンギ・ムポコ国際空港

バンギ, 中央アフリカ共和国

緯度: 04-24N, 経度: 018-31E, 海抜: 365m

現時点の気象観測

当レポートは10時間28分前の04:00(UTC)に作成
変向風 1kt
気温 24°C
湿度 94%
気圧 1014 hPa
視程: 7000m

METAR: FEFF 120400Z VRB01KT 7000 NSC 24/23 Q1014 NOSIG

時間: 15:28 (14:28 UTC)

予報

当レポートは33時間28分前の05:00(UTC)に作成
予報は11日の 06時(UTC)から 12日の 12時(UTC)まで有効
変向風 3kt
視程10km以上
高度1000ftの雲はほとんどない
11日の 08時(UTC)から 11日の 09時(UTC)まで徐々に
高度1300ftの千切れ雲あり
11日の 10時(UTC)から 11日の 12時(UTC)まで徐々に
高度2300ftの雲は散在している
高度4000ftの雲はほとんどない, 積乱雲.
11日の 12時(UTC)から 11日の 17時(UTC)まで一時的に
視程: 3000m
激しい雷雨, 雨
11日の 21時(UTC)から 12日の 01時(UTC)まで一時的に
視程: 4000m
激しい雷雨, 雨,

TAF: FEFF 110500Z 1106/1212 VRB03KT 9999 FEW010 BECMG 1108/1109 BKN013 BECMG 1110/1112 SCT023 FEW040CB TEMPO 1112/1117 3000 TSRA TEMPO 1121/1201 4000 TSRA

4,000以上の空港の気象観測と天気予報(METAR報とTAF報)

利用可能な観測所は地図上に黄色い丸と赤い丸で示す。

丸の上にカーソルを重ねると観測所名を参照できる。

次にクリックすると気象観測と天気予報を参照できる。

マップの切り替え:黒色「×」印の緑ボタンをクリックして拡大、「-」印の緑ボタンをクリックして縮小、緑色の三角印をクリックして隣りの地図に切り替え


METAR-TAF: